CTM001 LFPO-LDZA
Flight info
| Callsign | CTM001 |
|---|---|
| Flight time | N/A |
| Altitude | 37000 |
| Route | BUBLI DCT ETINO DCT BEGAR N491 DEGES N871 MADEB N606 ELMEM L607 GEDSO DCT EBITI DCT LULUD |
| Aircraft | A332/H-SDE3GHIJ2J3J5M1RVWXY/LB2D1 |
Departure
| Time | N/A |
|---|---|
| Airport | Paris-Orly Airport (LFPO) |
Arrival
| Time | 2026-04-29 13:30 |
|---|---|
| Airport | Zagreb Franjo Tuđman International Airport (LDZA) |
| Time | Latitude | Longitude | Altitude | Speed | Heading |
|---|---|---|---|---|---|
| 2026-04-29 12:54 | 47.08235 | 11.85763 | 37162 ft | 467 kts | 107° |
| 2026-04-29 12:54 | 47.07002 | 11.90157 | 37169 ft | 466 kts | 114° |
| 2026-04-29 12:55 | 47.04396 | 11.98887 | 37164 ft | 467 kts | 115° |
| 2026-04-29 12:55 | 47.01716 | 12.07571 | 37161 ft | 467 kts | 115° |
| 2026-04-29 12:56 | 46.99012 | 12.16231 | 37159 ft | 467 kts | 115° |
| 2026-04-29 12:56 | 46.96304 | 12.24884 | 37184 ft | 468 kts | 115° |
| 2026-04-29 12:57 | 46.93587 | 12.33556 | 37193 ft | 467 kts | 115° |
| 2026-04-29 12:57 | 46.90874 | 12.42186 | 37190 ft | 467 kts | 115° |
| 2026-04-29 12:58 | 46.88178 | 12.50734 | 37182 ft | 466 kts | 115° |
| 2026-04-29 12:58 | 46.85452 | 12.59349 | 37180 ft | 466 kts | 116° |
| 2026-04-29 12:59 | 46.82717 | 12.67957 | 37072 ft | 467 kts | 116° |
| 2026-04-29 12:59 | 46.81347 | 12.72258 | 36579 ft | 467 kts | 116° |
| 2026-04-29 12:59 | 46.79965 | 12.76591 | 35861 ft | 475 kts | 116° |
| 2026-04-29 12:59 | 46.78560 | 12.80990 | 35135 ft | 480 kts | 116° |
| 2026-04-29 13:00 | 46.77146 | 12.85406 | 34535 ft | 481 kts | 116° |
| 2026-04-29 13:00 | 46.75721 | 12.89838 | 34002 ft | 483 kts | 116° |
| 2026-04-29 13:00 | 46.74295 | 12.94284 | 33439 ft | 485 kts | 116° |
| 2026-04-29 13:00 | 46.72862 | 12.98747 | 32874 ft | 487 kts | 116° |
| 2026-04-29 13:01 | 46.71427 | 13.03200 | 32326 ft | 484 kts | 116° |
| 2026-04-29 13:01 | 46.70033 | 13.07643 | 31777 ft | 481 kts | 111° |
| 2026-04-29 13:01 | 46.69295 | 13.12364 | 31266 ft | 476 kts | 92° |
| 2026-04-29 13:01 | 46.69337 | 13.17092 | 30761 ft | 471 kts | 85° |
| 2026-04-29 13:02 | 46.69362 | 13.21854 | 30272 ft | 468 kts | 89° |
| 2026-04-29 13:02 | 46.69192 | 13.26622 | 29708 ft | 466 kts | 96° |
| 2026-04-29 13:02 | 46.68451 | 13.31200 | 29149 ft | 463 kts | 109° |
| 2026-04-29 13:02 | 46.67115 | 13.35380 | 28603 ft | 459 kts | 122° |
| 2026-04-29 13:03 | 46.65436 | 13.39289 | 28060 ft | 455 kts | 122° |
| 2026-04-29 13:03 | 46.63979 | 13.43371 | 27537 ft | 452 kts | 114° |
| 2026-04-29 13:03 | 46.62649 | 13.47482 | 27020 ft | 447 kts | 118° |
| 2026-04-29 13:03 | 46.61250 | 13.51493 | 26510 ft | 443 kts | 118° |
| 2026-04-29 13:04 | 46.59864 | 13.55481 | 26062 ft | 438 kts | 118° |
| 2026-04-29 13:04 | 46.58509 | 13.59404 | 25792 ft | 428 kts | 118° |
| 2026-04-29 13:04 | 46.57191 | 13.63235 | 25541 ft | 419 kts | 118° |
| 2026-04-29 13:04 | 46.55904 | 13.66981 | 25282 ft | 410 kts | 118° |
| 2026-04-29 13:05 | 46.54640 | 13.70660 | 25059 ft | 404 kts | 118° |
| 2026-04-29 13:05 | 46.53388 | 13.74303 | 24816 ft | 402 kts | 118° |
| 2026-04-29 13:05 | 46.52142 | 13.77922 | 24570 ft | 400 kts | 117° |
| 2026-04-29 13:05 | 46.50902 | 13.81528 | 24340 ft | 398 kts | 118° |
| 2026-04-29 13:06 | 46.49665 | 13.85117 | 24127 ft | 396 kts | 118° |
| 2026-04-29 13:06 | 46.48434 | 13.88676 | 23888 ft | 394 kts | 118° |
| 2026-04-29 13:06 | 46.47205 | 13.92230 | 23626 ft | 393 kts | 118° |
| 2026-04-29 13:06 | 46.45996 | 13.95726 | 23362 ft | 391 kts | 118° |
| 2026-04-29 13:07 | 46.44777 | 13.99244 | 23103 ft | 390 kts | 118° |
| 2026-04-29 13:07 | 46.43563 | 14.02743 | 22823 ft | 388 kts | 118° |
| 2026-04-29 13:07 | 46.42348 | 14.06239 | 22556 ft | 387 kts | 118° |
| 2026-04-29 13:07 | 46.41143 | 14.09708 | 22300 ft | 385 kts | 118° |
| 2026-04-29 13:08 | 46.39939 | 14.13166 | 22044 ft | 383 kts | 118° |
| 2026-04-29 13:08 | 46.38737 | 14.16611 | 21789 ft | 381 kts | 118° |
| 2026-04-29 13:08 | 46.37544 | 14.20025 | 21545 ft | 379 kts | 119° |
| 2026-04-29 13:08 | 46.36352 | 14.23433 | 21297 ft | 378 kts | 119° |
| 2026-04-29 13:09 | 46.35165 | 14.26822 | 21049 ft | 376 kts | 119° |
| 2026-04-29 13:09 | 46.33982 | 14.30196 | 20795 ft | 374 kts | 119° |
| 2026-04-29 13:09 | 46.32809 | 14.33539 | 20552 ft | 373 kts | 119° |
| 2026-04-29 13:09 | 46.31637 | 14.36874 | 20300 ft | 371 kts | 119° |
| 2026-04-29 13:10 | 46.30468 | 14.40194 | 20045 ft | 370 kts | 119° |
| 2026-04-29 13:10 | 46.29303 | 14.43500 | 19830 ft | 368 kts | 119° |
| 2026-04-29 13:10 | 46.28139 | 14.46798 | 19585 ft | 367 kts | 119° |
| 2026-04-29 13:10 | 46.26985 | 14.50065 | 19334 ft | 365 kts | 119° |
| 2026-04-29 13:11 | 46.25835 | 14.53321 | 19112 ft | 363 kts | 120° |
| 2026-04-29 13:11 | 46.24685 | 14.56567 | 18878 ft | 362 kts | 120° |
| 2026-04-29 13:11 | 46.23533 | 14.59813 | 18626 ft | 361 kts | 119° |
| 2026-04-29 13:11 | 46.22407 | 14.62985 | 18359 ft | 359 kts | 119° |
| 2026-04-29 13:12 | 46.21274 | 14.66176 | 18094 ft | 357 kts | 119° |
| 2026-04-29 13:12 | 46.20138 | 14.69370 | 17818 ft | 355 kts | 119° |
| 2026-04-29 13:12 | 46.19012 | 14.72530 | 17559 ft | 353 kts | 119° |
| 2026-04-29 13:12 | 46.17894 | 14.75664 | 17298 ft | 351 kts | 119° |
| 2026-04-29 13:13 | 46.16778 | 14.78789 | 17036 ft | 349 kts | 119° |
| 2026-04-29 13:13 | 46.15671 | 14.81890 | 16772 ft | 347 kts | 119° |
| 2026-04-29 13:13 | 46.14565 | 14.84980 | 16518 ft | 345 kts | 119° |
| 2026-04-29 13:13 | 46.13466 | 14.88046 | 16271 ft | 343 kts | 120° |
| 2026-04-29 13:14 | 46.12372 | 14.91096 | 16017 ft | 342 kts | 119° |
| 2026-04-29 13:14 | 46.11278 | 14.94141 | 15768 ft | 341 kts | 120° |
| 2026-04-29 13:14 | 46.10189 | 14.97170 | 15517 ft | 339 kts | 120° |
| 2026-04-29 13:14 | 46.09107 | 15.00176 | 15286 ft | 337 kts | 120° |
| 2026-04-29 13:15 | 46.08050 | 15.03133 | 15035 ft | 335 kts | 120° |
| 2026-04-29 13:15 | 46.06973 | 15.06101 | 14785 ft | 333 kts | 120° |
| 2026-04-29 13:15 | 46.05886 | 15.09094 | 14553 ft | 333 kts | 120° |
| 2026-04-29 13:15 | 46.04822 | 15.12041 | 14319 ft | 331 kts | 120° |
| 2026-04-29 13:16 | 46.03761 | 15.14976 | 14080 ft | 330 kts | 120° |
| 2026-04-29 13:16 | 46.02719 | 15.17854 | 13814 ft | 328 kts | 120° |
| 2026-04-29 13:16 | 46.01668 | 15.20751 | 13552 ft | 325 kts | 119° |
| 2026-04-29 13:16 | 46.00610 | 15.23662 | 13279 ft | 323 kts | 119° |
| 2026-04-29 13:17 | 45.99584 | 15.26484 | 13010 ft | 321 kts | 119° |
| 2026-04-29 13:17 | 45.98538 | 15.29361 | 12760 ft | 319 kts | 118° |
| 2026-04-29 13:17 | 45.97515 | 15.32170 | 12486 ft | 316 kts | 118° |
| 2026-04-29 13:17 | 45.96497 | 15.34960 | 12052 ft | 315 kts | 118° |
| 2026-04-29 13:18 | 45.95479 | 15.37747 | 11499 ft | 315 kts | 117° |
| 2026-04-29 13:18 | 45.94474 | 15.40494 | 11001 ft | 314 kts | 117° |
| 2026-04-29 13:18 | 45.93470 | 15.43237 | 10716 ft | 305 kts | 116° |
| 2026-04-29 13:18 | 45.92491 | 15.45910 | 10467 ft | 299 kts | 116° |
| 2026-04-29 13:19 | 45.91527 | 15.48541 | 10232 ft | 296 kts | 116° |
| 2026-04-29 13:19 | 45.90574 | 15.51149 | 9969 ft | 295 kts | 118° |
| 2026-04-29 13:19 | 45.89618 | 15.53755 | 9701 ft | 295 kts | 118° |
| 2026-04-29 13:19 | 45.88660 | 15.56362 | 9435 ft | 295 kts | 118° |
| 2026-04-29 13:20 | 45.87701 | 15.58961 | 9187 ft | 294 kts | 118° |
| 2026-04-29 13:20 | 45.86750 | 15.61541 | 8915 ft | 291 kts | 118° |
| 2026-04-29 13:20 | 45.85807 | 15.64098 | 8654 ft | 288 kts | 118° |
| 2026-04-29 13:20 | 45.84848 | 15.66608 | 8347 ft | 287 kts | 122° |
| 2026-04-29 13:21 | 45.83509 | 15.68702 | 7852 ft | 286 kts | 144° |
| 2026-04-29 13:21 | 45.81782 | 15.70115 | 7358 ft | 286 kts | 153° |
| 2026-04-29 13:21 | 45.79981 | 15.71336 | 6868 ft | 286 kts | 154° |
| 2026-04-29 13:21 | 45.78182 | 15.72531 | 6363 ft | 283 kts | 153° |
| 2026-04-29 13:22 | 45.76434 | 15.73701 | 5829 ft | 271 kts | 153° |
| 2026-04-29 13:22 | 45.74769 | 15.74817 | 5317 ft | 258 kts | 153° |
| 2026-04-29 13:22 | 45.73176 | 15.75892 | 4811 ft | 249 kts | 153° |
| 2026-04-29 13:22 | 45.71632 | 15.76938 | 4287 ft | 243 kts | 152° |
| 2026-04-29 13:23 | 45.70127 | 15.77969 | 3787 ft | 235 kts | 152° |
| 2026-04-29 13:23 | 45.68682 | 15.78944 | 3364 ft | 223 kts | 153° |
| 2026-04-29 13:23 | 45.67333 | 15.79848 | 3162 ft | 205 kts | 153° |
| 2026-04-29 13:23 | 45.66079 | 15.80694 | 3035 ft | 195 kts | 153° |
| 2026-04-29 13:24 | 45.64878 | 15.81515 | 3034 ft | 193 kts | 152° |
| 2026-04-29 13:24 | 45.63679 | 15.82331 | 3030 ft | 183 kts | 152° |
| 2026-04-29 13:24 | 45.62565 | 15.83096 | 3026 ft | 172 kts | 150° |
| 2026-04-29 13:24 | 45.61636 | 15.84094 | 3023 ft | 165 kts | 127° |
| 2026-04-29 13:25 | 45.61232 | 15.85536 | 3023 ft | 160 kts | 86° |
| 2026-04-29 13:25 | 45.62138 | 15.88338 | 3031 ft | 156 kts | 51° |
| 2026-04-29 13:25 | 45.62859 | 15.89504 | 3035 ft | 157 kts | 48° |
| 2026-04-29 13:26 | 45.63603 | 15.90638 | 3036 ft | 158 kts | 47° |
| 2026-04-29 13:26 | 45.64357 | 15.91780 | 2986 ft | 158 kts | 47° |
| 2026-04-29 13:26 | 45.65109 | 15.92927 | 2773 ft | 158 kts | 48° |
| 2026-04-29 13:26 | 45.65858 | 15.94069 | 2551 ft | 157 kts | 47° |
| 2026-04-29 13:27 | 45.66599 | 15.95192 | 2315 ft | 153 kts | 46° |
| 2026-04-29 13:27 | 45.67301 | 15.96257 | 2108 ft | 141 kts | 45° |
| 2026-04-29 13:27 | 45.67940 | 15.97226 | 1923 ft | 127 kts | 45° |
| 2026-04-29 13:27 | 45.68512 | 15.98096 | 1755 ft | 115 kts | 45° |
| 2026-04-29 13:28 | 45.69043 | 15.98901 | 1611 ft | 112 kts | 45° |
| 2026-04-29 13:28 | 45.69574 | 15.99708 | 1458 ft | 111 kts | 44° |
| 2026-04-29 13:28 | 45.70106 | 16.00518 | 1299 ft | 111 kts | 46° |
| 2026-04-29 13:28 | 45.70635 | 16.01323 | 1130 ft | 110 kts | 46° |
| 2026-04-29 13:29 | 45.71162 | 16.02129 | 944 ft | 111 kts | 47° |
| 2026-04-29 13:29 | 45.71698 | 16.02920 | 814 ft | 111 kts | 42° |
| 2026-04-29 13:29 | 45.72233 | 16.03721 | 695 ft | 111 kts | 47° |
| 2026-04-29 13:29 | 45.72762 | 16.04546 | 532 ft | 112 kts | 46° |
| 2026-04-29 13:30 | 45.73294 | 16.05359 | 389 ft | 112 kts | 47° |
| 2026-04-29 13:30 | 45.73754 | 16.06059 | 371 ft | 66 kts | 46° |
| 2026-04-29 13:30 | 45.73926 | 16.06321 | 372 ft | 7 kts | 47° |
| 2026-04-29 13:30 | 45.73956 | 16.06367 | 373 ft | 17 kts | 46° |
| 2026-04-29 13:31 | 45.74093 | 16.06574 | 371 ft | 37 kts | 47° |
| 2026-04-29 13:31 | 45.74260 | 16.06833 | 368 ft | 34 kts | 48° |
| 2026-04-29 13:31 | 45.74413 | 16.07067 | 370 ft | 31 kts | 46° |
| 2026-04-29 13:31 | 45.74571 | 16.07306 | 368 ft | 33 kts | 46° |
| 2026-04-29 13:32 | 45.74666 | 16.07473 | 365 ft | 10 kts | 82° |
| 2026-04-29 13:32 | 45.74644 | 16.07551 | 368 ft | 7 kts | 127° |
| 2026-04-29 13:32 | 45.74612 | 16.07600 | 368 ft | 6 kts | 135° |
| 2026-04-29 13:32 | 45.74577 | 16.07648 | 370 ft | 7 kts | 136° |
| 2026-04-29 13:33 | 45.74537 | 16.07702 | 371 ft | 9 kts | 137° |
| 2026-04-29 13:33 | 45.74489 | 16.07765 | 371 ft | 10 kts | 137° |
| 2026-04-29 13:33 | 45.74435 | 16.07837 | 370 ft | 11 kts | 137° |
| 2026-04-29 13:33 | 45.74355 | 16.07891 | 366 ft | 13 kts | 190° |
| 2026-04-29 13:34 | 45.74283 | 16.07807 | 371 ft | 14 kts | 226° |
| 2026-04-29 13:34 | 45.74210 | 16.07694 | 371 ft | 17 kts | 227° |
| 2026-04-29 13:34 | 45.74164 | 16.07623 | 371 ft | 4 kts | 220° |
| 2026-04-29 13:34 | 45.74153 | 16.07625 | 370 ft | 3 kts | 166° |
| 2026-04-29 13:35 | 45.74127 | 16.07649 | 370 ft | 6 kts | 142° |
| 2026-04-29 13:35 | 45.74109 | 16.07672 | 369 ft | 3 kts | 137° |
| 2026-04-29 13:35 | 45.74092 | 16.07695 | 369 ft | 2 kts | 137° |
| 2026-04-29 13:35 | 45.74080 | 16.07710 | 365 ft | 1 kts | 137° |
| 2026-04-29 13:36 | 45.74079 | 16.07712 | 365 ft | 0 kts | 137° |
| 2026-04-29 13:36 | 45.74079 | 16.07713 | 365 ft | 0 kts | 137° |